Time;durP1;ratioP1;P1;durP2;ratioP2;P2;SDS_P1;SDS_P2;PMS_P1;PMS_P2;Temp;Humidity;BMP_temperature;BMP_pressure;BME280_temperature;BME280_humidity;BME280_pressure;Samples;Min_cycle;Max_cycle;Signal;HPM_P1;HPM_P2
2022/10/16 15:14:33;;;;;;;2.80;0.52;;;;;;;22.88;55.73;96954.41;6267342;22;20152;-78
2022/10/16 15:17:01;;;;;;;3.30;0.95;;;;;;;22.79;55.01;96962.03;6301946;22;20086;-77
2022/10/16 15:19:29;;;;;;;2.95;0.77;;;;;;;22.70;55.34;96952.91;6274991;22;20024;-75
2022/10/16 15:21:57;;;;;;;2.00;0.73;;;;;;;22.63;55.50;96953.91;6273547;22;20094;-76
2022/10/16 15:24:24;;;;;;;3.42;0.88;;;;;;;22.57;55.34;96951.47;6277411;22;20020;-75
2022/10/16 15:26:52;;;;;;;4.90;2.10;;;;;;;22.51;55.49;96950.59;6276102;22;20020;-76
2022/10/16 15:29:20;;;;;;;5.00;2.50;;;;;;;22.46;55.77;96958.50;6277153;22;20384;-77
2022/10/16 15:31:50;;;;;;;10.20;7.28;;;;;;;22.38;56.17;96956.28;6277577;22;20028;-75
2022/10/16 15:34:19;;;;;;;7.82;4.13;;;;;;;22.34;56.50;96955.97;6274463;22;20366;-75
2022/10/16 15:36:46;;;;;;;5.75;4.13;;;;;;;22.29;56.75;96963.09;6275816;22;20359;-75
2022/10/16 15:39:17;;;;;;;4.68;3.42;;;;;;;22.24;57.22;96961.19;6275381;22;20027;-77
2022/10/16 15:41:50;;;;;;;4.00;2.40;;;;;;;22.19;57.21;96959.25;6275343;22;20016;-76
2022/10/16 15:44:17;;;;;;;3.65;2.80;;;;;;;22.15;57.46;96951.97;6275313;22;20024;-76
2022/10/16 15:46:45;;;;;;;6.20;4.80;;;;;;;22.09;58.20;96961.75;6275793;22;20042;-78
2022/10/16 15:49:14;;;;;;;7.63;6.93;;;;;;;22.05;58.22;96965.16;6274948;22;20023;-78
2022/10/16 15:51:42;;;;;;;6.97;3.90;;;;;;;22.02;59.46;96974.44;6275535;22;20069;-77
2022/10/16 15:54:10;;;;;;;8.23;2.30;;;;;;;21.98;58.71;96973.31;6275543;22;20016;-76
2022/10/16 15:56:38;;;;;;;3.45;2.50;;;;;;;21.95;59.21;96973.78;6275632;22;20081;-76
2022/10/16 16:07:12;;;;;;;11.55;1.80;;;;;;;21.87;58.49;96984.84;6257378;22;20361;-74
2022/10/16 16:09:40;;;;;;;3.30;1.10;;;;;;;21.78;58.96;96984.47;6306584;22;20061;-75
2022/10/16 16:12:07;;;;;;;3.72;1.42;;;;;;;21.68;59.02;96977.13;6306198;22;20031;-76
2022/10/16 17:16:43;;;;;;;2.08;1.88;;;;;;;20.54;60.74;97036.38;6310680;22;20091;-76
2022/10/16 17:19:16;;;;;;;3.03;1.67;;;;;;;20.55;60.80;97036.16;6286700;22;20026;-78
2022/10/16 17:21:44;;;;;;;2.08;1.40;;;;;;;20.55;60.73;97038.81;6306199;22;20038;-78
2022/10/16 17:24:12;;;;;;;4.40;1.42;;;;;;;20.55;60.88;97040.63;6306243;22;20052;-78
2022/10/16 17:26:43;;;;;;;2.40;1.80;;;;;;;20.54;61.25;97037.19;6306097;22;20016;-79
2022/10/16 17:29:12;;;;;;;4.15;1.58;;;;;;;20.51;61.81;97039.50;6305999;22;20015;-79
2022/10/16 17:31:40;;;;;;;4.75;1.83;;;;;;;20.50;62.34;97043.19;6302578;22;20018;-78
2022/10/16 17:34:11;;;;;;;4.32;1.73;;;;;;;20.49;62.75;97046.91;6303627;22;20012;-77
2022/10/16 17:36:42;;;;;;;5.88;1.90;;;;;;;20.46;62.50;97042.84;6302178;22;20019;-78
2022/10/16 17:39:12;;;;;;;2.30;1.88;;;;;;;20.42;62.56;97047.00;6303855;22;20067;-77
2022/10/16 17:41:40;;;;;;;4.43;1.80;;;;;;;20.38;62.39;97056.47;6300550;22;20024;-78
2022/10/16 17:44:08;;;;;;;5.70;1.85;;;;;;;20.34;62.96;97052.69;6302351;22;20020;-78
2022/10/16 17:46:36;;;;;;;2.83;1.60;;;;;;;20.29;63.04;97052.53;6296332;22;20417;-78
2022/10/16 17:49:09;;;;;;;19.67;2.20;;;;;;;20.24;63.17;97047.16;6295831;22;20024;-79
2022/10/16 17:51:37;;;;;;;1.77;1.55;;;;;;;20.17;63.24;97040.13;6297242;22;20031;-78
2022/10/16 17:54:06;;;;;;;3.30;1.90;;;;;;;20.10;63.52;97039.44;6303378;22;20017;-78
2022/10/16 17:56:33;;;;;;;4.20;2.20;;;;;;;20.04;63.44;97044.88;6301589;22;20020;-79
2022/10/16 17:59:02;;;;;;;5.90;1.60;;;;;;;19.98;63.68;97046.59;6301433;22;20023;-78
2022/10/16 18:01:32;;;;;;;3.35;1.60;;;;;;;19.92;64.12;97048.31;6300740;22;20026;-77
2022/10/16 18:04:01;;;;;;;5.10;2.10;;;;;;;19.86;64.02;97043.94;6296070;22;20023;-79
2022/10/16 18:06:31;;;;;;;2.75;2.17;;;;;;;19.81;64.37;97045.66;6296165;22;20020;-77
2022/10/16 18:09:00;;;;;;;6.97;2.25;;;;;;;19.74;64.45;97046.59;6295054;22;20019;-79
2022/10/16 18:11:28;;;;;;;13.30;2.13;;;;;;;19.70;64.36;97045.44;6293333;22;20362;-78
2022/10/16 18:13:57;;;;;;;5.85;1.40;;;;;;;19.65;64.34;97047.13;6280028;22;20020;-77
2022/10/16 18:16:26;;;;;;;7.20;1.60;;;;;;;19.60;64.35;97050.44;6288890;22;20030;-79
2022/10/16 18:18:55;;;;;;;4.13;1.60;;;;;;;19.56;64.43;97054.59;6286328;22;20499;-79
2022/10/16 18:21:26;;;;;;;4.03;1.65;;;;;;;19.52;64.20;97053.41;6285879;22;20023;-78
2022/10/16 18:23:57;;;;;;;2.33;1.33;;;;;;;19.47;64.04;97050.66;6287518;22;20091;-78
2022/10/16 18:26:25;;;;;;;2.33;1.45;;;;;;;19.42;63.97;97058.47;6284451;22;20020;-78
2022/10/16 18:28:54;;;;;;;2.38;1.50;;;;;;;19.39;63.80;97058.91;6284100;22;20016;-78
2022/10/16 18:31:24;;;;;;;4.55;1.63;;;;;;;19.36;63.79;97054.88;6280387;22;20016;-78
2022/10/16 18:33:51;;;;;;;1.88;1.60;;;;;;;19.33;63.44;97060.66;6285006;22;20016;-78
2022/10/16 18:36:22;;;;;;;2.33;1.52;;;;;;;19.31;63.78;97068.78;6294052;22;20042;-79
2022/10/16 18:38:51;;;;;;;1.80;1.10;;;;;;;19.28;63.33;97071.88;6302308;22;20010;-78
2022/10/16 18:41:22;;;;;;;1.20;1.05;;;;;;;19.24;63.24;97068.09;6300611;22;20409;-78
2022/10/16 18:43:49;;;;;;;6.07;1.20;;;;;;;19.22;63.15;97071.97;6278200;22;20020;-78
2022/10/16 18:46:19;;;;;;;4.45;1.20;;;;;;;19.16;63.19;97073.69;6277523;22;20106;-78
2022/10/16 18:48:47;;;;;;;2.55;1.25;;;;;;;19.12;63.19;97075.97;6276196;22;20024;-78
2022/10/16 18:51:17;;;;;;;1.20;1.10;;;;;;;19.09;63.14;97075.63;6276902;22;20024;-78
2022/10/16 18:53:47;;;;;;;5.28;1.48;;;;;;;19.05;63.22;97074.47;6276645;22;20023;-78
2022/10/16 18:56:16;;;;;;;2.80;0.90;;;;;;;19.03;63.39;97079.16;6276353;22;20102;-78
2022/10/16 18:58:47;;;;;;;1.65;1.00;;;;;;;19.00;63.38;97091.00;6275262;22;20355;-77
2022/10/16 19:01:19;;;;;;;1.63;1.00;;;;;;;18.99;63.46;97085.94;6276438;22;20024;-78
2022/10/16 19:03:47;;;;;;;4.57;2.20;;;;;;;18.98;63.44;97089.59;6277394;22;20027;-78
2022/10/16 19:06:16;;;;;;;3.75;2.03;;;;;;;18.97;63.61;97095.91;6277422;22;20019;-78
2022/10/16 19:08:44;;;;;;;12.30;1.83;;;;;;;18.96;63.33;97096.94;6278394;22;20016;-78
2022/10/16 19:11:13;;;;;;;2.20;0.98;;;;;;;18.94;63.49;97105.91;6282841;22;20099;-77
2022/10/16 19:13:41;;;;;;;4.97;1.63;;;;;;;18.93;63.47;97111.41;6280723;22;20023;-78
2022/10/16 19:16:13;;;;;;;1.80;0.90;;;;;;;18.92;63.46;97120.38;6276387;22;20050;-78
2022/10/16 19:18:49;;;;;;;3.08;1.30;;;;;;;18.90;63.44;97119.78;6275897;22;20050;-78
2022/10/16 19:21:18;;;;;;;1.73;1.08;;;;;;;18.89;63.57;97115.50;6275750;22;20402;-78
2022/10/16 19:23:46;;;;;;;3.22;1.25;;;;;;;18.88;63.33;97121.84;6276519;22;20020;-78
2022/10/16 19:26:16;;;;;;;3.50;1.73;;;;;;;18.87;63.72;97121.03;6275856;22;20023;-78
2022/10/16 19:28:44;;;;;;;3.58;1.40;;;;;;;18.88;63.93;97122.66;6275697;22;20020;-78
2022/10/16 19:31:18;;;;;;;3.90;1.30;;;;;;;18.88;64.58;97121.84;6276006;22;20143;-78
2022/10/16 19:33:46;;;;;;;4.38;1.40;;;;;;;18.87;63.96;97114.94;6275950;22;20016;-78
2022/10/16 19:36:16;;;;;;;2.13;1.00;;;;;;;18.85;64.44;97120.47;6276251;22;20046;-78
2022/10/16 19:38:45;;;;;;;2.88;1.05;;;;;;;18.84;64.29;97121.47;6275504;22;20020;-77
2022/10/16 19:41:15;;;;;;;3.97;1.30;;;;;;;18.83;64.46;97125.16;6276273;22;20020;-77
2022/10/16 19:43:43;;;;;;;2.90;0.90;;;;;;;18.82;64.94;97125.38;6276971;22;20030;-78
2022/10/16 19:46:12;;;;;;;6.63;1.60;;;;;;;18.77;64.20;97125.19;6279042;22;20026;-77
2022/10/16 19:48:42;;;;;;;4.43;1.23;;;;;;;18.73;64.55;97130.09;6278145;22;20023;-78
2022/10/16 19:51:11;;;;;;;3.05;1.25;;;;;;;18.69;64.22;97128.94;6275497;22;20031;-78
2022/10/16 19:53:39;;;;;;;3.55;2.08;;;;;;;18.65;65.54;97136.50;6275718;22;20028;-78
2022/10/16 19:56:12;;;;;;;2.67;0.95;;;;;;;18.62;64.16;97138.78;6275289;22;20022;-78
2022/10/16 19:58:40;;;;;;;3.63;1.00;;;;;;;18.58;63.88;97140.25;6275555;22;20020;-78
2022/10/16 20:01:07;;;;;;;4.72;1.05;;;;;;;18.56;63.89;97144.94;6275585;22;20027;-78
2022/10/16 20:03:35;;;;;;;4.00;1.15;;;;;;;18.52;64.02;97144.56;6276012;22;20402;-78
2022/10/16 20:06:05;;;;;;;2.35;1.10;;;;;;;18.51;65.79;97154.31;6275695;22;20019;-78
2022/10/16 20:08:34;;;;;;;1.75;1.08;;;;;;;18.52;64.88;97155.16;6275376;22;20020;-78
2022/10/16 20:11:02;;;;;;;2.58;1.08;;;;;;;18.52;65.42;97161.22;6275212;22;20016;-77
2022/10/16 20:13:30;;;;;;;2.88;1.00;;;;;;;18.50;64.63;97152.72;6275470;22;20024;-78
2022/10/16 20:15:57;;;;;;;3.33;1.13;;;;;;;18.51;65.97;97158.81;6275368;22;20406;-78
2022/10/16 20:18:25;;;;;;;2.17;1.20;;;;;;;18.54;68.83;97155.72;6275142;22;20102;-78
2022/10/16 20:20:52;;;;;;;1.75;1.15;;;;;;;18.52;66.68;97165.72;6275093;22;20026;-78
2022/10/16 20:23:22;;;;;;;1.60;1.13;;;;;;;18.52;67.87;97171.00;6275171;22;20126;-78
2022/10/16 20:25:51;;;;;;;3.15;1.10;;;;;;;18.48;66.50;97170.63;6275172;22;20027;-78
2022/10/16 20:28:20;;;;;;;2.28;1.27;;;;;;;18.47;67.90;97166.34;6274672;22;20517;-78
2022/10/16 20:30:49;;;;;;;1.08;0.98;;;;;;;18.48;67.73;97167.97;6290394;22;20023;-77
2022/10/16 20:33:18;;;;;;;2.42;1.00;;;;;;;18.48;67.76;97172.44;6299025;22;20047;-78
2022/10/16 20:35:47;;;;;;;2.10;1.35;;;;;;;18.47;67.15;97171.63;6296892;22;20015;-78
2022/10/16 20:41:53;;;;;;;5.68;1.50;;;;;;;18.41;66.92;97167.25;6296369;22;20020;-78
2022/10/16 20:44:21;;;;;;;1.92;1.10;;;;;;;18.35;65.94;97165.47;6308477;22;20090;-78
2022/10/16 20:46:49;;;;;;;1.27;0.95;;;;;;;18.32;65.30;97163.22;6308450;22;20102;-79
2022/10/16 20:49:16;;;;;;;1.20;1.10;;;;;;;18.30;65.14;97170.56;6277444;22;20351;-78
2022/10/16 20:52:02;;;;;;;1.05;0.90;;;;;;;18.27;64.86;97169.16;6276928;22;20015;-78
2022/10/16 20:54:30;;;;;;;3.15;1.20;;;;;;;18.26;64.69;97172.03;6277182;22;20026;-77
2022/10/16 20:56:58;;;;;;;5.03;1.42;;;;;;;18.26;64.51;97177.31;6276790;22;20023;-78
2022/10/16 20:59:26;;;;;;;1.25;1.10;;;;;;;18.26;64.75;97182.59;6277048;22;20027;-78
2022/10/16 21:01:53;;;;;;;2.25;1.35;;;;;;;18.27;64.50;97184.22;6277381;22;20023;-78
2022/10/16 21:04:21;;;;;;;4.13;1.30;;;;;;;18.27;64.58;97186.84;6276953;22;20474;-78
2022/10/16 21:06:49;;;;;;;1.95;1.17;;;;;;;18.27;65.75;97192.13;6277197;22;20027;-78
2022/10/16 21:09:16;;;;;;;2.78;1.48;;;;;;;18.25;65.05;97191.53;6276289;22;20351;-78
2022/10/16 21:11:44;;;;;;;2.30;1.10;;;;;;;18.27;65.53;97197.41;6276906;22;20020;-79
2022/10/16 21:14:13;;;;;;;1.77;1.20;;;;;;;18.26;66.85;97195.81;6277176;22;20360;-78
2022/10/16 21:16:40;;;;;;;2.45;1.10;;;;;;;18.26;67.66;97193.97;6277160;22;20030;-78
2022/10/16 21:19:08;;;;;;;4.57;1.30;;;;;;;18.25;66.13;97204.75;6276223;22;20015;-78
2022/10/16 21:21:37;;;;;;;3.17;1.20;;;;;;;18.24;67.08;97203.13;6277109;22;20015;-78
2022/10/16 21:24:06;;;;;;;4.53;1.35;;;;;;;18.22;67.13;97208.63;6277023;22;20020;-78
2022/10/16 21:26:40;;;;;;;1.48;1.25;;;;;;;18.20;66.52;97205.41;6277363;22;20027;-79
2022/10/16 21:29:07;;;;;;;2.10;1.00;;;;;;;18.18;65.85;97201.34;6276751;22;20020;-78
2022/10/16 21:31:36;;;;;;;2.08;1.10;;;;;;;18.14;65.41;97205.44;6277015;22;20016;-78
2022/10/16 21:34:04;;;;;;;2.25;1.13;;;;;;;18.13;66.18;97220.50;6276623;22;20019;-78
2022/10/16 21:36:33;;;;;;;1.52;0.98;;;;;;;18.14;67.18;97218.66;6277025;22;20020;-78
2022/10/16 21:39:01;;;;;;;1.48;0.80;;;;;;;18.13;66.80;97215.22;6276576;22;20019;-78
2022/10/16 21:41:29;;;;;;;1.02;1.00;;;;;;;18.11;65.82;97217.25;6276448;22;20034;-77
2022/10/16 21:43:58;;;;;;;5.03;1.20;;;;;;;18.08;65.51;97218.50;6276563;22;20475;-78
2022/10/16 21:46:28;;;;;;;1.48;1.05;;;;;;;18.06;65.53;97220.53;6277234;22;20023;-78
2022/10/16 21:48:59;;;;;;;3.05;1.30;;;;;;;18.03;65.40;97215.66;6276133;22;20459;-78
2022/10/16 21:51:28;;;;;;;3.55;1.38;;;;;;;18.01;65.51;97217.72;6277071;22;20024;-78
2022/10/16 21:53:55;;;;;;;4.15;1.48;;;;;;;17.99;65.40;97214.47;6276627;22;20020;-77
2022/10/16 21:56:23;;;;;;;3.42;1.42;;;;;;;17.96;65.39;97225.47;6276540;22;20016;-79
2022/10/16 21:58:51;;;;;;;3.72;0.98;;;;;;;17.94;65.34;97227.50;6281156;22;20026;-78
2022/10/16 22:01:20;;;;;;;2.60;1.33;;;;;;;17.94;65.56;97224.88;6288363;22;20030;-78
2022/10/16 22:03:48;;;;;;;2.25;1.13;;;;;;;17.93;66.17;97223.28;6282144;22;20020;-78
2022/10/16 22:06:20;;;;;;;4.13;1.90;;;;;;;17.94;65.37;97224.88;6277623;22;20015;-78
2022/10/16 22:08:55;;;;;;;1.42;1.20;;;;;;;17.92;65.79;97219.00;6276488;22;20015;-79
2022/10/16 22:11:25;;;;;;;2.53;0.95;;;;;;;17.90;65.69;97216.56;6276709;22;20456;-78
2022/10/16 22:13:53;;;;;;;2.33;1.38;;;;;;;17.90;65.39;97223.69;6276785;22;20074;-78
2022/10/16 22:16:26;;;;;;;1.40;1.20;;;;;;;17.88;65.08;97223.06;6276716;22;20091;-79
2022/10/16 22:18:54;;;;;;;6.18;1.15;;;;;;;17.87;65.12;97229.38;6276279;22;20024;-78
2022/10/16 22:21:24;;;;;;;4.65;1.30;;;;;;;17.85;65.11;97229.59;6276567;22;20019;-78
2022/10/16 22:23:51;;;;;;;3.50;1.10;;;;;;;17.85;65.26;97223.50;6276157;22;20493;-78
2022/10/16 22:26:20;;;;;;;7.97;1.08;;;;;;;17.83;65.22;97231.63;6276571;22;20374;-78
2022/10/16 22:28:48;;;;;;;3.90;1.38;;;;;;;17.80;65.10;97225.94;6276290;22;20211;-78
2022/10/16 22:31:15;;;;;;;2.40;1.17;;;;;;;17.80;64.99;97225.94;6275932;22;20094;-78
2022/10/16 22:33:44;;;;;;;2.20;1.15;;;;;;;17.77;65.50;97231.66;6276075;22;20030;-78
2022/10/16 22:36:13;;;;;;;4.10;1.50;;;;;;;17.77;65.01;97226.38;6276221;22;20325;-78
2022/10/16 22:38:42;;;;;;;8.63;1.38;;;;;;;17.75;65.07;97228.41;6275946;22;20351;-78
2022/10/16 22:41:13;;;;;;;1.48;1.00;;;;;;;17.74;65.85;97232.88;6275994;22;20027;-78
2022/10/16 22:43:42;;;;;;;1.33;0.82;;;;;;;17.72;65.63;97219.09;6276334;22;20020;-77
2022/10/16 22:46:12;;;;;;;4.40;1.23;;;;;;;17.70;65.25;97221.13;6279603;22;20347;-78
2022/10/16 22:48:40;;;;;;;4.28;1.13;;;;;;;17.69;65.12;97220.31;6276055;22;20024;-79
2022/10/16 22:51:10;;;;;;;1.48;1.05;;;;;;;17.66;65.09;97215.47;6276064;22;20026;-78
2022/10/16 22:53:45;;;;;;;2.75;1.25;;;;;;;17.64;65.01;97222.78;6276154;22;20026;-78
2022/10/16 22:56:14;;;;;;;8.00;1.42;;;;;;;17.61;64.91;97222.41;6276059;22;20412;-78
2022/10/16 22:58:42;;;;;;;5.05;1.63;;;;;;;17.58;65.18;97215.72;6275594;22;20019;-78
2022/10/16 23:01:11;;;;;;;5.30;1.17;;;;;;;17.57;65.39;97222.00;6275675;22;20030;-78
2022/10/16 23:03:39;;;;;;;5.93;1.30;;;;;;;17.56;65.28;97220.41;6276041;22;20022;-78
2022/10/16 23:06:07;;;;;;;1.67;1.25;;;;;;;17.52;65.33;97216.56;6275932;22;20022;-77
2022/10/16 23:08:34;;;;;;;1.88;1.20;;;;;;;17.52;65.37;97219.19;6275462;22;20022;-78
2022/10/16 23:11:07;;;;;;;1.67;1.27;;;;;;;17.50;65.48;97215.97;6276082;22;20020;-78
2022/10/16 23:13:36;;;;;;;;;;;;;;;17.49;65.43;97215.16;6276231;22;20026;-78
2022/10/16 23:16:05;;;;;;;3.22;1.42;;;;;;;17.45;65.36;97218.44;6276052;22;19915;-78
2022/10/16 23:18:34;;;;;;;1.73;1.20;;;;;;;17.40;65.44;97215.59;6275622;22;20390;-78
2022/10/16 23:21:05;;;;;;;3.15;1.00;;;;;;;17.39;65.60;97221.91;6275847;22;20058;-78
2022/10/16 23:23:34;;;;;;;5.53;2.03;;;;;;;17.38;65.53;97226.38;6276045;22;20024;-78
2022/10/16 23:26:02;;;;;;;2.25;1.05;;;;;;;17.36;65.46;97227.56;6275786;22;20015;-78
2022/10/16 23:28:31;;;;;;;4.80;1.00;;;;;;;17.33;65.35;97225.38;6275024;22;20024;-77
2022/10/16 23:30:59;;;;;;;3.08;1.40;;;;;;;17.31;65.45;97233.47;6275817;22;20478;-78
2022/10/16 23:33:26;;;;;;;1.85;1.13;;;;;;;17.28;65.64;97245.25;6275588;22;20016;-78
2022/10/16 23:35:54;;;;;;;2.33;1.42;;;;;;;17.26;65.67;97246.50;6275695;22;20356;-78
2022/10/16 23:38:22;;;;;;;3.85;1.25;;;;;;;17.23;65.65;97236.34;6275222;22;20020;-78
2022/10/16 23:40:49;;;;;;;1.52;1.00;;;;;;;17.19;65.71;97241.25;6275428;22;20019;-78
2022/10/16 23:43:17;;;;;;;3.30;1.08;;;;;;;17.16;65.74;97243.47;6275883;22;20023;-78
2022/10/16 23:45:45;;;;;;;4.07;1.17;;;;;;;17.13;65.75;97244.69;6275414;22;20452;-78
2022/10/16 23:48:13;;;;;;;1.55;1.20;;;;;;;17.09;66.09;97246.13;6275323;22;20024;-78
2022/10/16 23:50:41;;;;;;;1.38;1.23;;;;;;;17.07;66.08;97250.78;6275518;22;20020;-78
2022/10/16 23:53:08;;;;;;;7.55;1.20;;;;;;;17.02;66.13;97251.41;6275845;22;20042;-78
2022/10/16 23:55:37;;;;;;;1.23;1.13;;;;;;;16.98;66.27;97246.78;6275102;22;20030;-78
2022/10/16 23:58:04;;;;;;;1.98;1.20;;;;;;;16.94;66.54;97248.19;6275173;22;20020;-78
